Time;durP1;ratioP1;P1;durP2;ratioP2;P2;SDS_P1;SDS_P2;PMS_P1;PMS_P2;Temp;Humidity;BMP_temperature;BMP_pressure;BME280_temperature;BME280_humidity;BME280_pressure;Samples;Min_cycle;Max_cycle;Signal;HPM_P1;HPM_P2
2023/12/28 00:00:06;;;;;;;15.83;11.67;;;;;21.10;99953.00;;;;2074925;28;20222;-53
2023/12/28 00:01:06;;;;;;;16.50;11.40;;;;;21.10;99959.00;;;;2077850;28;20235;-55
2023/12/28 00:02:06;;;;;;;13.83;10.93;;;;;21.10;99957.00;;;;2067381;28;20217;-55
2023/12/28 00:03:07;;;;;;;13.87;10.70;;;;;21.10;99956.00;;;;2071160;28;20233;-54
2023/12/28 00:04:07;;;;;;;13.53;10.87;;;;;21.10;99964.00;;;;2076152;28;20214;-54
2023/12/28 00:05:08;;;;;;;13.33;10.00;;;;;21.10;99956.00;;;;2070221;28;20679;-54
2023/12/28 00:06:09;;;;;;;14.00;10.23;;;;;21.10;99962.00;;;;2075984;28;20217;-56
2023/12/28 00:07:10;;;;;;;15.23;11.50;;;;;21.00;99965.00;;;;2065788;28;20696;-54
2023/12/28 00:08:10;;;;;;;13.37;9.47;;;;;21.10;99963.00;;;;2077862;28;20226;-53
2023/12/28 00:09:10;;;;;;;14.20;10.00;;;;;21.00;99963.00;;;;2074579;28;20260;-55
2023/12/28 00:10:11;;;;;;;13.43;9.57;;;;;21.00;99964.00;;;;2077532;28;20225;-55
2023/12/28 00:11:11;;;;;;;18.00;9.80;;;;;21.00;99959.00;;;;2078918;28;20213;-56
2023/12/28 00:12:11;;;;;;;13.07;10.30;;;;;21.00;99967.00;;;;2064272;28;20225;-54
2023/12/28 00:13:12;;;;;;;14.30;9.50;;;;;21.00;99961.00;;;;2069705;28;20226;-54
2023/12/28 00:14:12;;;;;;;17.97;10.53;;;;;21.00;99974.00;;;;2076493;28;20884;-54
2023/12/28 00:15:12;;;;;;;22.23;12.40;;;;;21.00;99966.00;;;;2078582;28;20892;-53
2023/12/28 00:16:13;;;;;;;17.47;12.20;;;;;21.00;99967.00;;;;2075272;28;20226;-53
2023/12/28 00:17:14;;;;;;;17.03;11.27;;;;;21.00;99961.00;;;;2068884;28;20231;-54
2023/12/28 00:18:14;;;;;;;14.00;9.77;;;;;21.00;99960.00;;;;2069490;28;20276;-52
2023/12/28 00:19:14;;;;;;;11.43;9.30;;;;;21.00;99957.00;;;;2073443;28;20991;-53
2023/12/28 00:20:15;;;;;;;13.37;10.10;;;;;21.00;99957.00;;;;2069138;28;20222;-54
2023/12/28 00:21:15;;;;;;;12.40;9.57;;;;;21.00;99961.00;;;;2071409;28;20288;-54
2023/12/28 00:22:15;;;;;;;11.90;8.60;;;;;21.00;99955.00;;;;2068011;28;20248;-59
2023/12/28 00:23:16;;;;;;;12.00;9.00;;;;;21.00;99961.00;;;;2075368;28;20348;-53
2023/12/28 00:24:20;;;;;;;10.80;8.20;;;;;21.00;99955.00;;;;2077845;28;20213;-53
2023/12/28 00:25:20;;;;;;;10.32;7.88;;;;;21.10;99972.00;;;;2068940;28;20214;-52
2023/12/28 00:26:21;;;;;;;10.63;7.97;;;;;21.00;99972.00;;;;2071199;28;20218;-53
2023/12/28 00:27:21;;;;;;;9.20;7.37;;;;;21.00;99961.00;;;;2066241;28;20218;-53
2023/12/28 00:28:21;;;;;;;10.53;8.27;;;;;21.00;99959.00;;;;2072070;28;20985;-55
2023/12/28 00:29:22;;;;;;;13.27;8.40;;;;;21.00;99964.00;;;;2077268;28;20247;-54
2023/12/28 00:30:22;;;;;;;8.63;7.17;;;;;21.00;99972.00;;;;2069947;28;21985;-53
2023/12/28 00:31:22;;;;;;;11.90;7.10;;;;;21.00;99955.00;;;;2078083;28;20706;-53
2023/12/28 00:32:23;;;;;;;9.10;7.40;;;;;21.00;99951.00;;;;2068295;28;20698;-54
2023/12/28 00:33:23;;;;;;;9.90;7.43;;;;;21.00;99956.00;;;;2077900;28;20216;-54
2023/12/28 00:34:23;;;;;;;8.90;6.93;;;;;21.00;99962.00;;;;2078512;28;20213;-54
2023/12/28 00:35:24;;;;;;;10.77;7.20;;;;;21.00;99958.00;;;;2072988;28;20221;-54
2023/12/28 00:36:24;;;;;;;10.00;6.90;;;;;21.00;99957.00;;;;2077524;28;20560;-55
2023/12/28 00:37:24;;;;;;;8.50;6.70;;;;;21.00;99970.00;;;;2065399;28;20922;-54
2023/12/28 00:38:25;;;;;;;9.17;6.87;;;;;21.00;99973.00;;;;2067194;28;20560;-54
2023/12/28 00:39:25;;;;;;;10.90;7.60;;;;;21.00;99964.00;;;;2077512;28;20727;-54
2023/12/28 00:40:25;;;;;;;9.27;6.37;;;;;21.00;99961.00;;;;2076184;28;20701;-55
2023/12/28 00:41:26;;;;;;;8.60;6.43;;;;;21.00;99958.00;;;;2076334;28;20206;-59
2023/12/28 00:42:26;;;;;;;9.83;6.60;;;;;21.00;99967.00;;;;2066744;28;20214;-55
2023/12/28 00:43:26;;;;;;;7.70;6.10;;;;;21.00;99965.00;;;;2078442;28;20225;-55
2023/12/28 00:44:27;;;;;;;9.37;6.57;;;;;21.00;99960.00;;;;2076658;28;21010;-54
2023/12/28 00:45:27;;;;;;;10.30;6.60;;;;;21.00;99968.00;;;;2078358;28;20768;-55
2023/12/28 00:46:28;;;;;;;8.63;6.03;;;;;21.00;99972.00;;;;2069456;28;20210;-53
2023/12/28 00:47:28;;;;;;;9.77;7.07;;;;;21.00;99967.00;;;;2072238;28;20268;-54
2023/12/28 00:48:28;;;;;;;9.50;6.07;;;;;21.00;99973.00;;;;2077556;28;20492;-55
2023/12/28 00:49:29;;;;;;;7.50;5.63;;;;;21.00;99971.00;;;;2073738;28;20214;-55
2023/12/28 00:50:31;;;;;;;8.43;6.13;;;;;21.00;99958.00;;;;2076798;28;20594;-55
2023/12/28 00:51:32;;;;;;;8.35;5.57;;;;;21.00;99973.00;;;;2064089;28;20225;-53
2023/12/28 00:52:32;;;;;;;8.80;6.80;;;;;21.00;99974.00;;;;2078871;28;20209;-55
2023/12/28 00:53:32;;;;;;;7.87;5.60;;;;;21.00;99966.00;;;;2064980;28;20639;-54
2023/12/28 00:54:33;;;;;;;9.50;5.90;;;;;21.00;99968.00;;;;2071876;28;20264;-55
2023/12/28 00:55:33;;;;;;;7.40;5.10;;;;;21.00;99968.00;;;;2076067;28;20399;-55
2023/12/28 00:56:33;;;;;;;7.30;5.57;;;;;21.00;99978.00;;;;2061652;28;20261;-55
2023/12/28 00:57:34;;;;;;;9.47;5.70;;;;;21.00;99977.00;;;;2078341;28;20260;-56
2023/12/28 00:58:34;;;;;;;8.17;5.90;;;;;21.00;99970.00;;;;2076453;28;20218;-55
2023/12/28 00:59:34;;;;;;;7.10;5.50;;;;;21.00;99964.00;;;;2075698;28;20235;-54
2023/12/28 01:00:35;;;;;;;7.87;5.70;;;;;21.00;99962.00;;;;2068568;28;20244;-55
2023/12/28 01:01:35;;;;;;;7.90;5.40;;;;;21.00;99959.00;;;;2065327;28;20263;-55
2023/12/28 01:02:36;;;;;;;7.20;5.33;;;;;21.00;99968.00;;;;2078335;28;20217;-55
2023/12/28 01:03:36;;;;;;;8.20;6.10;;;;;21.00;99962.00;;;;2078424;28;20232;-56
2023/12/28 01:04:36;;;;;;;7.17;5.10;;;;;20.90;99966.00;;;;2074646;28;20210;-54
2023/12/28 01:05:36;;;;;;;7.50;4.80;;;;;20.90;99968.00;;;;2072879;28;20209;-55
2023/12/28 01:06:37;;;;;;;7.70;5.33;;;;;21.00;99981.00;;;;2067534;28;20213;-55
2023/12/28 01:07:37;;;;;;;7.10;5.00;;;;;21.00;99959.00;;;;2072955;28;20293;-54
2023/12/28 01:08:37;;;;;;;7.00;5.40;;;;;21.00;99974.00;;;;2075532;28;20911;-55
2023/12/28 01:09:38;;;;;;;6.87;4.73;;;;;20.90;99973.00;;;;2075473;28;20736;-55
2023/12/28 01:10:38;;;;;;;6.60;5.10;;;;;20.90;99964.00;;;;2074298;28;20236;-55
2023/12/28 01:11:38;;;;;;;7.07;4.63;;;;;20.60;99963.00;;;;2065790;28;20210;-55
2023/12/28 01:12:39;;;;;;;7.10;4.70;;;;;20.90;99968.00;;;;2078944;28;20286;-54
2023/12/28 01:13:39;;;;;;;7.63;5.03;;;;;21.00;99984.00;;;;2077201;28;20212;-56
2023/12/28 01:14:39;;;;;;;6.90;5.27;;;;;20.90;99980.00;;;;2072840;28;20239;-56
2023/12/28 01:15:40;;;;;;;5.50;4.57;;;;;20.90;99969.00;;;;2075044;28;20213;-56
2023/12/28 01:16:40;;;;;;;6.30;4.70;;;;;20.90;99971.00;;;;2066745;28;20214;-55
2023/12/28 01:17:41;;;;;;;7.00;4.43;;;;;20.90;99968.00;;;;2075064;28;20222;-56
2023/12/28 01:18:41;;;;;;;9.30;4.97;;;;;20.90;99979.00;;;;2072853;28;20649;-54
2023/12/28 01:19:41;;;;;;;7.10;4.87;;;;;20.90;99986.00;;;;2077874;28;20239;-56
2023/12/28 01:20:41;;;;;;;8.60;4.40;;;;;20.90;99984.00;;;;2076491;28;20276;-56
2023/12/28 01:21:42;;;;;;;6.23;3.90;;;;;20.90;99973.00;;;;2063374;28;20229;-55
2023/12/28 01:22:42;;;;;;;5.50;4.57;;;;;20.90;99977.00;;;;2074725;28;20237;-55
2023/12/28 01:23:42;;;;;;;6.73;4.13;;;;;20.90;99977.00;;;;2074471;28;20225;-56
2023/12/28 01:24:46;;;;;;;6.50;3.77;;;;;20.90;99988.00;;;;2077304;28;20296;-56
2023/12/28 01:25:46;;;;;;;5.95;4.15;;;;;20.90;99999.00;;;;2068379;28;20288;-55
2023/12/28 01:26:47;;;;;;;7.73;4.20;;;;;20.90;99984.00;;;;2067597;28;20234;-54
2023/12/28 01:27:47;;;;;;;5.87;4.10;;;;;20.90;99993.00;;;;2076194;28;20221;-56
2023/12/28 01:28:47;;;;;;;5.87;3.93;;;;;20.90;100020.00;;;;2072926;28;20678;-55
2023/12/28 01:29:48;;;;;;;5.00;3.70;;;;;20.80;100002.00;;;;2077787;28;20564;-53
2023/12/28 01:30:48;;;;;;;5.80;4.03;;;;;20.80;100001.00;;;;2073369;28;20263;-55
2023/12/28 01:31:48;;;;;;;5.53;3.90;;;;;20.80;100004.00;;;;2068187;28;20253;-56
2023/12/28 01:32:49;;;;;;;6.27;4.07;;;;;20.80;100000.00;;;;2073815;28;20284;-55
2023/12/28 01:33:49;;;;;;;6.50;3.60;;;;;20.80;100002.00;;;;2073261;28;20217;-56
2023/12/28 01:34:49;;;;;;;6.27;3.57;;;;;20.80;100008.00;;;;2075692;28;20237;-56
2023/12/28 01:35:50;;;;;;;5.13;3.80;;;;;20.80;100000.00;;;;2075616;28;20220;-56
2023/12/28 01:36:50;;;;;;;5.30;3.60;;;;;20.80;100008.00;;;;2068035;28;20225;-55
2023/12/28 01:37:50;;;;;;;4.40;3.23;;;;;20.80;99991.00;;;;2074295;28;20226;-56
2023/12/28 01:38:51;;;;;;;5.80;3.60;;;;;20.80;99990.00;;;;2074091;28;20228;-55
2023/12/28 01:39:51;;;;;;;4.07;3.13;;;;;20.80;100004.00;;;;2076492;28;20221;-56
2023/12/28 01:40:51;;;;;;;5.67;3.77;;;;;20.80;99994.00;;;;2076065;28;20279;-56
2023/12/28 01:41:52;;;;;;;5.97;3.80;;;;;20.80;99995.00;;;;2066881;28;20222;-56
2023/12/28 01:42:52;;;;;;;6.17;3.70;;;;;20.80;100003.00;;;;2073787;28;20236;-56
2023/12/28 01:43:52;;;;;;;4.33;3.10;;;;;20.80;100004.00;;;;2077410;28;20213;-55
2023/12/28 01:44:53;;;;;;;5.80;2.70;;;;;20.80;100007.00;;;;2074871;28;20225;-56
2023/12/28 01:45:53;;;;;;;5.43;3.27;;;;;20.80;100007.00;;;;2077885;28;20258;-56
2023/12/28 01:46:53;;;;;;;3.63;2.47;;;;;20.80;100007.00;;;;2069575;28;20224;-56
2023/12/28 01:47:54;;;;;;;5.23;2.70;;;;;20.70;100009.00;;;;2076806;28;20313;-55
2023/12/28 01:48:54;;;;;;;4.40;3.00;;;;;20.70;100006.00;;;;2069881;28;20214;-57
2023/12/28 01:49:54;;;;;;;6.00;3.70;;;;;20.70;99998.00;;;;2065066;28;20210;-56
2023/12/28 01:50:55;;;;;;;4.67;3.37;;;;;20.70;100017.00;;;;2059653;28;20218;-56
2023/12/28 01:51:56;;;;;;;4.60;3.23;;;;;20.70;100012.00;;;;2065081;28;20229;-55
2023/12/28 01:52:56;;;;;;;5.77;3.33;;;;;20.70;100011.00;;;;2068588;28;20206;-56
2023/12/28 01:53:56;;;;;;;4.33;3.20;;;;;20.70;100000.00;;;;2056158;28;20887;-55
2023/12/28 01:54:57;;;;;;;3.77;2.80;;;;;20.70;100010.00;;;;2065061;28;20335;-54
2023/12/28 01:55:57;;;;;;;4.43;2.90;;;;;20.70;100015.00;;;;2066247;28;20648;-56
2023/12/28 01:56:59;;;;;;;4.20;2.57;;;;;20.70;100000.00;;;;2063434;28;20679;-55
2023/12/28 01:57:59;;;;;;;4.97;3.10;;;;;20.40;100012.00;;;;2067209;28;20911;-56
2023/12/28 01:58:59;;;;;;;5.63;3.33;;;;;20.70;100020.00;;;;2068632;28;20214;-54
2023/12/28 02:00:01;;;;;;;4.33;3.20;;;;;20.70;100004.00;;;;2071909;28;20264;-55
2023/12/28 02:01:01;;;;;;;5.72;3.13;;;;;20.70;100004.00;;;;2065785;28;20214;-55
2023/12/28 02:02:02;;;;;;;3.70;2.80;;;;;20.70;100015.00;;;;2062918;28;21096;-55
2023/12/28 02:03:03;;;;;;;4.47;2.67;;;;;20.70;100012.00;;;;2082693;28;20221;-56
2023/12/28 02:04:03;;;;;;;4.87;3.17;;;;;20.70;100017.00;;;;2068628;28;20461;-56
2023/12/28 02:05:04;;;;;;;4.50;2.63;;;;;20.70;100022.00;;;;2085167;28;20307;-55
2023/12/28 02:06:04;;;;;;;3.90;2.70;;;;;20.70;100006.00;;;;2087758;28;20213;-55
2023/12/28 02:07:05;;;;;;;3.40;2.47;;;;;20.70;100023.00;;;;2054755;28;20329;-55
2023/12/28 02:08:05;;;;;;;4.63;2.70;;;;;20.70;100021.00;;;;2063832;28;20837;-56
2023/12/28 02:09:05;;;;;;;3.60;2.60;;;;;20.70;100015.00;;;;2082967;28;20907;-56
2023/12/28 02:10:06;;;;;;;3.60;2.57;;;;;20.70;100028.00;;;;2082305;28;20215;-56
2023/12/28 02:11:07;;;;;;;4.63;2.97;;;;;20.70;100016.00;;;;2085753;28;20227;-55
2023/12/28 02:12:07;;;;;;;3.77;3.00;;;;;20.60;100015.00;;;;2068884;28;20252;-56
2023/12/28 02:13:08;;;;;;;5.13;2.73;;;;;20.60;100016.00;;;;2083484;28;20228;-56
2023/12/28 02:14:08;;;;;;;3.63;2.40;;;;;20.60;100019.00;;;;2083683;28;20241;-54
2023/12/28 02:15:09;;;;;;;2.93;2.13;;;;;20.60;100023.00;;;;2085569;28;20255;-55
2023/12/28 02:16:16;;;;;;;3.83;2.70;;;;;20.60;100016.00;;;;2077740;28;20272;-57
2023/12/28 02:17:21;;;;;;;4.88;2.60;;;;;20.60;100019.00;;;;2080866;28;20297;-56
2023/12/28 02:18:23;;;;;;;2.92;2.20;;;;;20.60;100021.00;;;;2072501;28;20237;-55
2023/12/28 02:19:46;;;;;;;4.55;2.80;;;;;20.60;100031.00;;;;2062437;28;20218;-56
2023/12/28 02:20:46;;;;;;;4.47;2.22;;;;;20.60;100037.00;;;;2074125;28;21052;-54
2023/12/28 02:21:47;;;;;;;8.00;2.70;;;;;20.60;100025.00;;;;2072481;28;20336;-55
2023/12/28 02:22:47;;;;;;;3.70;2.73;;;;;20.60;100016.00;;;;2076260;28;20233;-55
2023/12/28 02:23:48;;;;;;;3.83;2.47;;;;;20.60;100020.00;;;;2057605;28;20301;-56
2023/12/28 02:25:14;;;;;;;3.88;2.42;;;;;20.60;100029.00;;;;2063781;28;20218;-55
2023/12/28 02:26:15;;;;;;;3.45;2.40;;;;;20.60;100029.00;;;;2073514;28;20218;-56
2023/12/28 02:27:16;;;;;;;3.95;2.45;;;;;20.60;100032.00;;;;2073835;28;20251;-54
2023/12/28 02:28:16;;;;;;;3.37;2.30;;;;;20.60;100033.00;;;;2084348;28;20220;-55
2023/12/28 02:29:16;;;;;;;3.40;2.40;;;;;20.60;100019.00;;;;2078742;28;20233;-55
2023/12/28 02:30:18;;;;;;;3.30;2.77;;;;;20.60;100032.00;;;;2075368;28;20214;-55
2023/12/28 02:31:25;;;;;;;3.63;2.45;;;;;20.60;100029.00;;;;2074485;28;20228;-55
2023/12/28 02:32:35;;;;;;;3.20;2.10;;;;;20.60;100017.00;;;;2082624;28;20349;-56
2023/12/28 02:33:38;;;;;;;3.60;2.35;;;;;20.60;100034.00;;;;2069956;28;20210;-55
2023/12/28 02:34:40;;;;;;;3.30;2.40;;;;;20.60;100023.00;;;;2076346;28;20217;-54
2023/12/28 02:35:56;;;;;;;2.80;2.17;;;;;20.60;100026.00;;;;2075330;28;21139;-56
2023/12/28 02:36:56;;;;;;;3.55;2.00;;;;;20.60;100036.00;;;;2058498;28;20225;-55
2023/12/28 02:37:59;;;;;;;4.00;2.20;;;;;20.60;100035.00;;;;2068530;28;20233;-56
2023/12/28 02:39:00;;;;;;;5.90;2.60;;;;;20.60;100026.00;;;;2075255;28;20739;-57
2023/12/28 02:40:01;;;;;;;3.58;2.30;;;;;20.50;100017.00;;;;2087012;28;20220;-55
2023/12/28 02:41:02;;;;;;;3.10;2.10;;;;;20.50;100022.00;;;;2079685;28;20806;-54
2023/12/28 02:42:02;;;;;;;4.33;2.50;;;;;20.60;100020.00;;;;2063572;28;20237;-55
2023/12/28 02:43:03;;;;;;;3.53;2.20;;;;;20.50;100033.00;;;;2062281;28;20719;-55
2023/12/28 02:44:03;;;;;;;2.73;1.90;;;;;20.50;100021.00;;;;2066536;28;20671;-55
2023/12/28 02:45:04;;;;;;;2.73;1.90;;;;;20.50;100022.00;;;;2080847;28;20642;-55
2023/12/28 02:46:05;;;;;;;3.10;2.00;;;;;20.50;100024.00;;;;2081194;28;20246;-55
2023/12/28 02:47:05;;;;;;;3.27;2.00;;;;;20.50;100028.00;;;;2060955;28;20288;-56
2023/12/28 02:48:06;;;;;;;3.20;2.00;;;;;20.60;100031.00;;;;2073574;28;20217;-56
2023/12/28 02:49:06;;;;;;;3.40;2.43;;;;;20.60;100020.00;;;;2080588;28;20244;-54
2023/12/28 02:50:07;;;;;;;3.37;1.93;;;;;20.60;100015.00;;;;2078100;28;20252;-55
2023/12/28 02:51:07;;;;;;;2.73;1.90;;;;;20.50;100013.00;;;;2082635;28;20229;-56
2023/12/28 02:52:08;;;;;;;3.53;2.30;;;;;20.50;100021.00;;;;2073063;28;20264;-56
2023/12/28 02:53:08;;;;;;;3.40;2.13;;;;;20.60;100017.00;;;;2085971;28;20217;-55
2023/12/28 02:54:09;;;;;;;4.23;2.20;;;;;20.60;100019.00;;;;2086479;28;20225;-56
2023/12/28 02:55:10;;;;;;;2.87;1.70;;;;;20.60;100013.00;;;;2089138;28;20303;-56
2023/12/28 02:56:10;;;;;;;2.47;1.67;;;;;20.60;100008.00;;;;2087851;28;20233;-56
2023/12/28 02:57:10;;;;;;;3.30;2.07;;;;;20.60;100004.00;;;;2070207;28;20217;-54
2023/12/28 02:58:11;;;;;;;3.30;2.17;;;;;20.60;99999.00;;;;2083077;28;20314;-56
2023/12/28 02:59:11;;;;;;;3.67;1.77;;;;;20.60;99996.00;;;;2080775;28;20201;-55
2023/12/28 03:00:12;;;;;;;3.40;1.40;;;;;20.60;100004.00;;;;2077998;28;20221;-56
2023/12/28 03:01:12;;;;;;;3.37;2.23;;;;;20.50;100002.00;;;;2082802;28;20209;-55
2023/12/28 03:02:12;;;;;;;3.13;2.20;;;;;20.60;100020.00;;;;2074407;28;20217;-56
2023/12/28 03:03:13;;;;;;;3.73;2.00;;;;;20.60;100005.00;;;;2085170;28;20857;-54
2023/12/28 03:04:13;;;;;;;3.40;1.97;;;;;20.60;100000.00;;;;2085278;28;20731;-56
2023/12/28 03:05:13;;;;;;;3.20;1.97;;;;;20.60;100002.00;;;;2083487;28;20217;-56
2023/12/28 03:06:14;;;;;;;3.00;1.87;;;;;20.50;100006.00;;;;2085093;28;20224;-55
2023/12/28 03:07:14;;;;;;;2.43;1.60;;;;;20.50;100003.00;;;;2080929;28;20224;-55
2023/12/28 03:08:14;;;;;;;2.37;1.90;;;;;20.50;100020.00;;;;2077047;28;20240;-56
2023/12/28 03:09:15;;;;;;;2.97;1.90;;;;;20.50;100015.00;;;;2070827;28;20218;-55
2023/12/28 03:10:15;;;;;;;4.40;1.97;;;;;20.50;100014.00;;;;2067800;28;20225;-56
2023/12/28 03:11:15;;;;;;;3.83;2.00;;;;;20.50;100005.00;;;;2077984;28;20222;-55
2023/12/28 03:12:16;;;;;;;2.57;1.80;;;;;20.50;100005.00;;;;2070245;28;20579;-55
2023/12/28 03:13:16;;;;;;;3.27;2.07;;;;;20.50;100004.00;;;;2083703;28;20271;-55
2023/12/28 03:14:17;;;;;;;2.60;2.00;;;;;20.50;100000.00;;;;2083396;28;20305;-56
2023/12/28 03:15:17;;;;;;;3.27;1.97;;;;;20.50;100009.00;;;;2089426;28;20220;-54
2023/12/28 03:16:18;;;;;;;2.80;1.90;;;;;20.50;100005.00;;;;2085853;28;20463;-54
2023/12/28 03:17:18;;;;;;;3.40;1.60;;;;;20.50;100006.00;;;;2069282;28;20244;-55
2023/12/28 03:18:19;;;;;;;2.83;2.07;;;;;20.50;100012.00;;;;2080893;28;20232;-54
2023/12/28 03:19:19;;;;;;;2.40;1.63;;;;;20.50;100005.00;;;;2083202;28;20247;-55
2023/12/28 03:20:20;;;;;;;3.47;1.97;;;;;20.50;100008.00;;;;2082365;28;20227;-55
2023/12/28 03:21:20;;;;;;;2.97;2.00;;;;;20.50;100011.00;;;;2085108;28;20212;-54
2023/12/28 03:22:20;;;;;;;2.70;1.70;;;;;20.50;100018.00;;;;2066463;28;20229;-55
2023/12/28 03:23:21;;;;;;;3.13;2.00;;;;;20.50;100009.00;;;;2084011;28;20248;-55
2023/12/28 03:24:21;;;;;;;6.17;1.63;;;;;20.50;100015.00;;;;2081172;28;20232;-55
2023/12/28 03:25:21;;;;;;;3.50;2.10;;;;;20.40;100036.00;;;;2082466;28;20217;-56
2023/12/28 03:26:22;;;;;;;3.43;1.57;;;;;20.40;99996.00;;;;2083286;28;20566;-55
2023/12/28 03:27:22;;;;;;;3.30;1.73;;;;;20.50;100013.00;;;;2074385;28;21110;-55
2023/12/28 03:28:22;;;;;;;3.30;1.90;;;;;20.40;100010.00;;;;2083071;28;20220;-54
2023/12/28 03:29:23;;;;;;;3.43;1.87;;;;;20.50;100010.00;;;;2078435;28;20213;-55
2023/12/28 03:30:24;;;;;;;2.75;1.67;;;;;20.40;100011.00;;;;2082901;28;20255;-56
2023/12/28 03:31:24;;;;;;;2.67;1.80;;;;;20.50;100011.00;;;;2081146;28;20611;-55
2023/12/28 03:32:25;;;;;;;2.80;1.70;;;;;20.40;100013.00;;;;2074565;28;20282;-55
2023/12/28 03:33:25;;;;;;;2.63;1.70;;;;;20.50;100017.00;;;;2083153;28;20696;-55
2023/12/28 03:34:29;;;;;;;3.47;2.20;;;;;20.50;100009.00;;;;2086270;28;20223;-55
2023/12/28 03:35:30;;;;;;;2.67;1.75;;;;;20.50;100000.00;;;;2085390;28;20219;-56
2023/12/28 03:36:30;;;;;;;4.23;1.70;;;;;20.50;100001.00;;;;2067468;28;20213;-55
2023/12/28 03:37:30;;;;;;;2.67;1.43;;;;;20.50;100003.00;;;;2084904;28;20317;-55
2023/12/28 03:38:31;;;;;;;3.03;1.90;;;;;20.50;100003.00;;;;2079753;28;20221;-54
2023/12/28 03:39:31;;;;;;;4.20;1.60;;;;;20.50;100003.00;;;;2085195;28;20225;-55
2023/12/28 03:40:31;;;;;;;2.23;1.60;;;;;20.50;100007.00;;;;2078225;28;20216;-55
2023/12/28 03:41:32;;;;;;;9.50;2.07;;;;;20.50;100008.00;;;;2074440;28;20220;-55
2023/12/28 03:42:32;;;;;;;2.97;1.67;;;;;20.50;100001.00;;;;2085364;28;20244;-55
2023/12/28 03:43:32;;;;;;;3.13;1.90;;;;;20.50;99997.00;;;;2089625;28;20228;-55
2023/12/28 03:44:33;;;;;;;2.27;1.63;;;;;20.40;100002.00;;;;2085374;28;20217;-54
2023/12/28 03:45:33;;;;;;;2.60;1.67;;;;;20.40;100001.00;;;;2073629;28;20283;-55
2023/12/28 03:46:33;;;;;;;3.07;1.60;;;;;20.40;99997.00;;;;2074998;28;20252;-55
2023/12/28 03:47:34;;;;;;;2.30;1.63;;;;;20.40;99998.00;;;;2082923;28;20228;-55
2023/12/28 03:48:36;;;;;;;4.67;1.60;;;;;20.40;99997.00;;;;2084993;28;20217;-55
2023/12/28 03:49:36;;;;;;;3.15;1.80;;;;;20.40;100004.00;;;;2083841;28;20216;-58
2023/12/28 03:50:36;;;;;;;3.03;1.50;;;;;20.40;99996.00;;;;2078300;28;20700;-55
2023/12/28 03:51:37;;;;;;;2.43;1.80;;;;;20.40;99988.00;;;;2089309;28;20277;-57
2023/12/28 03:52:37;;;;;;;2.87;1.60;;;;;20.40;100001.00;;;;2087201;28;20239;-56
2023/12/28 03:53:38;;;;;;;2.53;1.67;;;;;20.40;99997.00;;;;2085406;28;20209;-54
2023/12/28 03:54:39;;;;;;;2.30;1.33;;;;;20.40;99996.00;;;;2089025;28;20222;-55
2023/12/28 03:55:39;;;;;;;2.45;1.40;;;;;20.40;99995.00;;;;2093299;28;20237;-56
2023/12/28 03:56:40;;;;;;;2.83;1.60;;;;;20.40;99996.00;;;;2083514;28;20212;-55
2023/12/28 03:57:42;;;;;;;2.50;1.90;;;;;20.40;99997.00;;;;2089815;28;20216;-55
2023/12/28 03:58:42;;;;;;;2.97;1.67;;;;;20.40;100010.00;;;;2086170;28;20212;-55
2023/12/28 03:59:42;;;;;;;2.23;1.53;;;;;20.40;99999.00;;;;2080636;28;20644;-56
2023/12/28 04:00:43;;;;;;;2.10;1.60;;;;;20.40;100006.00;;;;2084875;28;20693;-54
2023/12/28 04:01:43;;;;;;;2.53;1.40;;;;;20.40;100003.00;;;;2080571;28;20950;-55
2023/12/28 04:02:44;;;;;;;2.50;1.67;;;;;20.40;99997.00;;;;2090247;28;20204;-54
2023/12/28 04:03:44;;;;;;;2.33;1.33;;;;;20.40;100005.00;;;;2085963;28;20652;-54
2023/12/28 04:04:45;;;;;;;2.20;1.50;;;;;20.40;99991.00;;;;2092933;28;20238;-56
2023/12/28 04:05:46;;;;;;;2.73;1.97;;;;;20.40;99992.00;;;;2081228;28;20209;-55
2023/12/28 04:06:47;;;;;;;5.03;1.42;;;;;20.40;99998.00;;;;2071554;28;20280;-54
2023/12/28 04:07:47;;;;;;;3.23;1.87;;;;;20.40;99998.00;;;;2084356;28;21146;-55
2023/12/28 04:08:47;;;;;;;2.93;1.80;;;;;20.40;99989.00;;;;2085460;28;20229;-55
2023/12/28 04:09:48;;;;;;;3.03;1.97;;;;;20.40;99992.00;;;;2090839;28;20242;-55
2023/12/28 04:10:48;;;;;;;3.13;1.63;;;;;20.40;99998.00;;;;2084869;28;20229;-55
2023/12/28 04:11:48;;;;;;;4.50;1.70;;;;;20.40;100004.00;;;;2083327;28;20307;-55
2023/12/28 04:12:49;;;;;;;2.90;1.37;;;;;20.40;100008.00;;;;2084397;28;20213;-55
2023/12/28 04:13:50;;;;;;;2.50;1.45;;;;;20.40;100007.00;;;;2082473;28;20259;-56
2023/12/28 04:14:50;;;;;;;3.47;1.70;;;;;20.40;100017.00;;;;2087254;28;20684;-55
2023/12/28 04:15:51;;;;;;;2.00;1.50;;;;;20.40;100002.00;;;;2080307;28;20210;-55
2023/12/28 04:16:51;;;;;;;3.40;1.57;;;;;20.40;100005.00;;;;2077522;28;20216;-54
2023/12/28 04:17:51;;;;;;;3.10;1.73;;;;;20.30;100001.00;;;;2080594;28;20228;-54
2023/12/28 04:18:52;;;;;;;1.90;1.30;;;;;20.40;100000.00;;;;2073862;28;20217;-55
2023/12/28 04:19:52;;;;;;;3.10;1.50;;;;;20.40;99909.00;;;;2082810;28;20644;-56
2023/12/28 04:20:52;;;;;;;2.77;1.57;;;;;20.40;99977.00;;;;2085357;28;20614;-55
2023/12/28 04:21:53;;;;;;;3.10;2.07;;;;;20.40;99874.00;;;;2077498;28;20223;-55
2023/12/28 04:22:53;;;;;;;2.83;1.70;;;;;20.40;100002.00;;;;2088357;28;20290;-55
2023/12/28 04:23:53;;;;;;;3.30;1.80;;;;;20.30;100000.00;;;;2085527;28;20621;-55
2023/12/28 04:24:54;;;;;;;2.10;1.27;;;;;20.30;99996.00;;;;2080454;28;20580;-55
2023/12/28 04:25:54;;;;;;;2.60;1.90;;;;;20.40;99993.00;;;;2085053;28;20205;-56
2023/12/28 04:26:54;;;;;;;2.83;1.57;;;;;20.30;100001.00;;;;2072903;28;20225;-56
2023/12/28 04:27:55;;;;;;;3.13;1.60;;;;;20.40;99997.00;;;;2086689;28;20236;-55
2023/12/28 04:28:55;;;;;;;2.33;1.57;;;;;20.00;99996.00;;;;2084091;28;20197;-55
2023/12/28 04:29:55;;;;;;;2.83;1.43;;;;;20.30;99999.00;;;;2080233;28;20275;-54
2023/12/28 04:30:56;;;;;;;3.03;1.80;;;;;20.40;99999.00;;;;2085253;28;20256;-55
2023/12/28 04:31:56;;;;;;;2.70;1.53;;;;;20.30;99994.00;;;;2068228;28;20221;-55
2023/12/28 04:32:57;;;;;;;2.27;1.60;;;;;20.40;99997.00;;;;2086109;28;20220;-56
2023/12/28 04:33:57;;;;;;;2.60;1.40;;;;;20.40;99981.00;;;;2074331;28;20232;-56
2023/12/28 04:34:57;;;;;;;2.03;1.50;;;;;20.30;99979.00;;;;2086631;28;20216;-56
2023/12/28 04:36:05;;;;;;;2.50;1.53;;;;;20.30;99984.00;;;;2084067;28;20239;-55
2023/12/28 04:37:05;;;;;;;2.30;1.42;;;;;20.30;99987.00;;;;2071829;28;20217;-55
2023/12/28 04:38:05;;;;;;;2.10;1.50;;;;;20.30;99984.00;;;;2084952;28;20225;-55
2023/12/28 04:39:06;;;;;;;3.10;1.70;;;;;20.30;99990.00;;;;2057684;28;20313;-54
2023/12/28 04:40:07;;;;;;;2.40;1.60;;;;;20.30;99985.00;;;;2064072;28;20222;-54
2023/12/28 04:41:09;;;;;;;2.50;1.50;;;;;20.40;99982.00;;;;2073892;28;20307;-56
2023/12/28 04:42:09;;;;;;;2.50;1.60;;;;;20.30;99984.00;;;;2065804;28;20284;-56
2023/12/28 04:43:10;;;;;;;2.33;1.57;;;;;20.30;99983.00;;;;2073354;28;20226;-56
2023/12/28 04:44:10;;;;;;;3.00;1.77;;;;;20.30;99973.00;;;;2073133;28;20287;-55
2023/12/28 04:45:10;;;;;;;2.50;1.63;;;;;20.30;99994.00;;;;2074508;28;20356;-55
2023/12/28 04:46:11;;;;;;;2.63;1.27;;;;;20.30;99990.00;;;;2064057;28;20683;-56
2023/12/28 04:47:11;;;;;;;3.80;1.47;;;;;20.30;99999.00;;;;2068361;28;20304;-60
2023/12/28 04:48:11;;;;;;;3.47;1.63;;;;;20.30;100006.00;;;;2081278;28;20213;-54
2023/12/28 04:49:12;;;;;;;2.10;1.20;;;;;20.30;100010.00;;;;2084023;28;20220;-56
2023/12/28 04:50:12;;;;;;;4.00;1.27;;;;;20.30;100003.00;;;;2080119;28;20230;-54
2023/12/28 04:51:13;;;;;;;3.00;1.40;;;;;20.30;99995.00;;;;2081436;28;20282;-55
2023/12/28 04:52:13;;;;;;;2.67;1.53;;;;;20.30;99997.00;;;;2074183;28;20291;-55
2023/12/28 04:53:13;;;;;;;2.33;1.50;;;;;20.30;100006.00;;;;2082699;28;20811;-56
2023/12/28 04:54:14;;;;;;;3.00;1.70;;;;;20.30;100016.00;;;;2085040;28;20648;-55
2023/12/28 04:55:14;;;;;;;2.70;1.77;;;;;20.30;99998.00;;;;2077838;28;20247;-55
2023/12/28 04:56:18;;;;;;;3.30;1.60;;;;;20.30;99998.00;;;;2082826;28;20213;-56
2023/12/28 04:57:19;;;;;;;5.47;1.83;;;;;20.30;100007.00;;;;2070790;28;20206;-55
2023/12/28 04:58:19;;;;;;;4.93;1.70;;;;;20.30;100002.00;;;;2082919;28;20221;-54
2023/12/28 04:59:19;;;;;;;2.80;1.30;;;;;20.30;100004.00;;;;2078027;28;20266;-55
2023/12/28 05:00:20;;;;;;;3.47;1.47;;;;;20.30;100004.00;;;;2081058;28;20205;-55
2023/12/28 05:01:20;;;;;;;2.50;1.33;;;;;20.30;100009.00;;;;2084730;28;20213;-55